No particular awareness of the weather is required.    There are no Weather-warnings


Meteo18 Weather Cam more information Meteo18 Weather Cam


Thunder radar more information blitzortung!


Rain radar more information rain snow radar


Visit our other weather sites:

Template documentation
and downloads

And another site



Weather Underground History page Text

Daily Summary for November 7, 2017 Units:  English    Metric   Both
« Previous Day
Next Day »
Daily Weekly Monthly Yearly Custom
  High: Low: Average:
Temperature: TemperatureC °F -0.4 °F 4.2 °F
Dew Point: DewpointC °F -1.5 °F 1.1 °F
Humidity: Humidity % 63 % 81 %
Wind Speed: WindSpeedKMH mph 0.0 mph 3 mph
Wind Gust: WindSpeedGustKMH mph - -
Wind:- - WSW
Pressure: PressurehPa in 1018.8 in -
Precipitation: 0.0 in    
Historical Graphs
 
 
Tabular Data for November 7, 2017
Time Temperature Dew Point Pressure Wind Wind Speed Wind Gust Humidity Rainfall Rate (Hourly)
TemperatureC °F DewpointC °F PressurehPa in Calm     Humidity % HourlyPrecipMM in
00:02 3.3 °F 1.0 °F 1024.3 in North 4.8 mph 11.3 mph 85 % 0.0 in
00:07 3.3 °F 1.0 °F 1024.3 in North 6.4 mph 11.3 mph 85 % 0.0 in
00:12 3.3 °F 1.0 °F 1024.3 in North 1.6 mph 9.7 mph 85 % 0.0 in
00:17 3.2 °F 0.9 °F 1024.3 in NW 6.4 mph 9.7 mph 85 % 0.0 in
00:22 3.2 °F 0.9 °F 1024.3 in NNW 4.8 mph 9.7 mph 85 % 0.0 in
00:32 2.9 °F 0.8 °F 1024.3 in NNW 1.6 mph 11.3 mph 86 % 0.0 in
00:42 2.9 °F 0.8 °F 1024.3 in NNW 3.2 mph 9.7 mph 86 % 0.0 in
00:47 2.9 °F 0.8 °F 1024.3 in NW 3.2 mph 8.0 mph 86 % 0.0 in
00:52 2.9 °F 0.8 °F 1023.9 in NW 1.6 mph 8.0 mph 86 % 0.0 in
00:57 2.9 °F 0.8 °F 1023.9 in NW 1.6 mph 6.4 mph 86 % 0.0 in
01:02 2.9 °F 0.6 °F 1024.3 in NW 3.2 mph 6.4 mph 85 % 0.0 in
01:07 2.7 °F 0.4 °F 1024.3 in WNW 1.6 mph 4.8 mph 85 % 0.0 in
01:12 2.3 °F 0.2 °F 1024.3 in WNW 3.2 mph 4.8 mph 86 % 0.0 in
01:17 2.1 °F 0.2 °F 1024.3 in WNW 3.2 mph 4.8 mph 87 % 0.0 in
01:22 2.0 °F 0.2 °F 1024.3 in West 1.6 mph 4.8 mph 88 % 0.0 in
01:27 2.0 °F 0.2 °F 1024.3 in Calm   4.8 mph 88 % 0.0 in
01:32 2.1 °F 0.3 °F 1024.3 in WNW 4.8 mph 4.8 mph 88 % 0.0 in
01:37 2.1 °F 0.3 °F 1024.3 in WNW 1.6 mph 4.8 mph 88 % 0.0 in
01:42 2.1 °F 0.3 °F 1024.3 in West 1.6 mph 4.8 mph 88 % 0.0 in
01:47 1.9 °F 0.0 °F 1024.3 in WNW 1.6 mph 4.8 mph 87 % 0.0 in
01:52 1.8 °F 0.0 °F 1024.3 in WNW 1.6 mph 3.2 mph 88 % 0.0 in
01:57 1.7 °F -0.1 °F 1024.3 in WNW 1.6 mph 3.2 mph 88 % 0.0 in
02:02 1.8 °F 0.0 °F 1024.3 in WNW 1.6 mph 4.8 mph 88 % 0.0 in
02:12 2.0 °F 0.2 °F 1024.3 in WNW 1.6 mph 4.8 mph 88 % 0.0 in
02:17 2.1 °F 0.3 °F 1024.3 in WNW 3.2 mph 3.2 mph 88 % 0.0 in
02:22 2.1 °F 0.3 °F 1024.3 in WNW 1.6 mph 3.2 mph 88 % 0.0 in
02:32 2.3 °F 0.5 °F 1024.3 in NNW 4.8 mph 4.8 mph 88 % 0.0 in
02:37 2.6 °F 0.8 °F 1024.3 in WNW 1.6 mph 11.3 mph 88 % 0.0 in
02:42 2.6 °F 0.7 °F 1024.3 in NW 4.8 mph 11.3 mph 87 % 0.0 in
02:47 2.5 °F 0.6 °F 1023.9 in Calm   11.3 mph 87 % 0.0 in
02:52 2.4 °F 0.5 °F 1023.9 in Calm   6.4 mph 87 % 0.0 in
02:57 2.3 °F 0.4 °F 1023.9 in Calm   6.4 mph 87 % 0.0 in
03:02 2.4 °F 0.6 °F 1023.9 in Calm   3.2 mph 88 % 0.0 in
03:07 2.3 °F 0.5 °F 1023.9 in NNW 1.6 mph 4.8 mph 88 % 0.0 in
03:12 2.3 °F 0.5 °F 1023.9 in North 4.8 mph 4.8 mph 88 % 0.0 in
03:17 2.3 °F 0.5 °F 1023.6 in NNW 3.2 mph 8.0 mph 88 % 0.0 in
03:22 2.4 °F 0.6 °F 1023.6 in NNW 3.2 mph 8.0 mph 88 % 0.0 in
03:27 2.5 °F 0.7 °F 1023.6 in NW 1.6 mph 11.3 mph 88 % 0.0 in
03:32 2.5 °F 0.7 °F 1023.6 in NNW 1.6 mph 11.3 mph 88 % 0.0 in
03:37 2.4 °F 0.5 °F 1023.6 in NNW 3.2 mph 11.3 mph 87 % 0.0 in
03:42 2.3 °F 0.5 °F 1023.6 in WNW 6.4 mph 8.0 mph 88 % 0.0 in
03:47 2.2 °F 0.4 °F 1023.6 in NNW 3.2 mph 6.4 mph 88 % 0.0 in
03:52 1.8 °F 0.0 °F 1023.2 in NNW 4.8 mph 6.4 mph 88 % 0.0 in
03:57 1.8 °F 0.0 °F 1023.2 in NNW 4.8 mph 6.4 mph 88 % 0.0 in
04:02 1.8 °F 0.0 °F 1023.2 in NNW 4.8 mph 6.4 mph 88 % 0.0 in
08:07 1.2 °F 0.2 °F 1022.2 in NNW 1.6 mph -1607.4 mph 93 % 0 in
08:12 1.3 °F 0.3 °F 1022.2 in NNW 1.6 mph 3.2 mph 93 % 0.0 in
08:17 1.4 °F 0.2 °F 1022.2 in Calm   3.2 mph 92 % 0.0 in
08:22 1.4 °F 0.2 °F 1022.2 in NW 1.6 mph 4.8 mph 92 % 0.0 in
08:32 1.3 °F 0.1 °F 1022.2 in NW 3.2 mph 4.8 mph 92 % 0.0 in
08:37 1.5 °F 0.3 °F 1022.2 in NW 3.2 mph 6.4 mph 92 % 0.0 in
08:42 1.6 °F 0.4 °F 1022.2 in WNW 1.6 mph 6.4 mph 92 % 0.0 in
08:47 1.8 °F 0.6 °F 1022.6 in Calm   6.4 mph 92 % 0.0 in
08:52 2.0 °F 0.8 °F 1022.6 in Calm   4.8 mph 92 % 0.0 in
08:57 2.2 °F 1.0 °F 1022.6 in Calm   4.8 mph 92 % 0.0 in
09:02 2.4 °F 1.1 °F 1022.6 in Calm   1.6 mph 91 % 0.0 in
09:12 2.8 °F 1.5 °F 1022.2 in Calm     91 % 0.0 in
09:17 3.2 °F 1.9 °F 1022.2 in NNW 1.6 mph   91 % 0.0 in
09:22 3.4 °F 1.9 °F 1022.2 in WNW 3.2 mph 3.2 mph 90 % 0.0 in
09:27 3.7 °F 2.2 °F 1022.2 in Calm   4.8 mph 90 % 0.0 in
09:37 4.2 °F 2.2 °F 1022.2 in Calm   4.8 mph 87 % 0.0 in
09:42 4.4 °F 2.4 °F 1022.2 in Calm   3.2 mph 87 % 0.0 in
09:47 4.8 °F 2.8 °F 1022.2 in Calm   3.2 mph 87 % 0.0 in
09:52 5.1 °F 2.8 °F 1022.2 in North 1.6 mph 1.6 mph 85 % 0.0 in
09:57 5.1 °F 2.6 °F 1022.2 in North 1.6 mph 8.0 mph 84 % 0.0 in
10:02 5.1 °F 2.6 °F 1022.2 in ENE 3.2 mph 8.0 mph 84 % 0.0 in
10:12 5.4 °F 2.9 °F 1022.2 in North 1.6 mph 9.7 mph 84 % 0.0 in
10:17 5.7 °F 3.2 °F 1021.9 in NW 3.2 mph 9.7 mph 84 % 0.0 in
10:22 5.7 °F 2.7 °F 1022.2 in NNW 8.0 mph 12.9 mph 81 % 0.0 in
10:27 5.9 °F 2.9 °F 1021.9 in North 4.8 mph 12.9 mph 81 % 0.0 in
10:32 5.9 °F 2.7 °F 1021.9 in NNW 4.8 mph 12.9 mph 80 % 0.0 in
10:37 6.1 °F 2.9 °F 1021.9 in NNW 4.8 mph 12.9 mph 80 % 0.0 in
10:42 6.2 °F 2.8 °F 1021.9 in NNW 9.7 mph 14.5 mph 79 % 0.0 in
10:47 6.4 °F 2.8 °F 1021.9 in NE 1.6 mph 14.5 mph 78 % 0.0 in
10:57 6.7 °F 2.8 °F 1021.9 in NNE 1.6 mph 14.5 mph 76 % 0.0 in
11:02 6.8 °F 2.9 °F 1021.9 in NNW 3.2 mph 14.5 mph 76 % 0.0 in
11:07 6.9 °F 3.0 °F 1021.9 in NNW 6.4 mph 14.5 mph 76 % 0.0 in
11:12 7.1 °F 3.3 °F 1021.9 in NW 4.8 mph 12.9 mph 77 % 0.0 in
11:17 7.3 °F 3.2 °F 1021.9 in NNE 8.0 mph 14.5 mph 75 % 0.0 in
11:27 7.3 °F 3.0 °F 1021.9 in NNW 8.0 mph 19.3 mph 74 % 0.0 in
11:32 7.3 °F 3.0 °F 1021.9 in North 8.0 mph 19.3 mph 74 % 0.0 in
11:37 7.4 °F 3.1 °F 1021.6 in North 6.4 mph 19.3 mph 74 % 0.0 in
11:42 7.3 °F 2.6 °F 1021.6 in NNW 9.7 mph 19.3 mph 72 % 0.0 in
11:47 7.3 °F 2.8 °F 1021.6 in North 12.9 mph 19.3 mph 73 % 0.0 in
11:52 7.3 °F 2.6 °F 1021.6 in NNW 11.3 mph 19.3 mph 72 % 0.0 in
11:57 7.5 °F 3.2 °F 1021.6 in NNE 4.8 mph 19.3 mph 74 % 0.0 in
12:02 7.6 °F 2.9 °F 1021.2 in NNW 11.3 mph 19.3 mph 72 % 0.0 in
12:07 7.6 °F 3.3 °F 1021.2 in NNE 8.0 mph 19.3 mph 74 % 0.0 in
12:12 7.7 °F 3.2 °F 1021.2 in NW 3.2 mph 17.7 mph 73 % 0.0 in
12:17 7.8 °F 3.1 °F 1021.2 in NW 3.2 mph 17.7 mph 72 % 0.0 in
12:22 7.8 °F 2.7 °F 1021.2 in NNE 3.2 mph 17.7 mph 70 % 0.0 in
12:27 7.9 °F 2.8 °F 1021.2 in NW 6.4 mph 17.7 mph 70 % 0.0 in
12:42 7.9 °F 2.4 °F 1020.9 in NNE 12.9 mph 20.9 mph 68 % 0.0 in
12:47 7.8 °F 2.3 °F 1020.9 in North 11.3 mph 20.9 mph 68 % 0.0 in
12:52 7.9 °F 2.2 °F 1020.9 in North 11.3 mph 19.3 mph 67 % 0.0 in
12:57 8.0 °F 2.5 °F 1020.5 in North 8.0 mph 22.5 mph 68 % 0.0 in
13:02 8.0 °F 2.0 °F 1020.5 in NNE 9.7 mph 22.5 mph 66 % 0.0 in
13:07 8.0 °F 1.8 °F 1020.5 in NNE 12.9 mph 22.5 mph 65 % 0.0 in
13:12 8.1 °F 2.3 °F 1020.5 in NNW 11.3 mph 22.5 mph 67 % 0.0 in
13:17 8.2 °F 2.2 °F 1020.2 in NW 11.3 mph 22.5 mph 66 % 0.0 in
13:22 8.1 °F 1.9 °F 1020.2 in NNW 11.3 mph 22.5 mph 65 % 0.0 in
13:27 8.2 °F 2.4 °F 1020.2 in NE 16.1 mph 20.9 mph 67 % 0.0 in
13:32 8.3 °F 2.1 °F 1020.2 in North 11.3 mph 19.3 mph 65 % 0.0 in
13:37 8.3 °F 2.1 °F 1020.2 in NNW 4.8 mph 19.3 mph 65 % 0.0 in
13:42 8.4 °F 2.0 °F 1020.2 in NNW 1.6 mph 19.3 mph 64 % 0.0 in
13:47 8.3 °F 2.1 °F 1020.2 in NNW 6.4 mph 17.7 mph 65 % 0.0 in
13:52 8.3 °F 2.1 °F 1020.2 in North 9.7 mph 17.7 mph 65 % 0.0 in
13:57 8.3 °F 1.7 °F 1020.2 in North 6.4 mph 17.7 mph 63 % 0.0 in
14:02 8.4 °F 2.4 °F 1019.9 in NNW 8.0 mph 16.1 mph 66 % 0.0 in
14:07 8.3 °F 2.1 °F 1019.9 in NW 4.8 mph 16.1 mph 65 % 0.0 in
14:12 8.4 °F 2.4 °F 1019.9 in NNE 1.6 mph 19.3 mph 66 % 0.0 in
14:22 8.5 °F 2.3 °F 1019.9 in NNW 6.4 mph 19.3 mph 65 % 0.0 in
14:27 8.6 °F 2.2 °F 1019.9 in North 11.3 mph 14.5 mph 64 % 0.0 in
14:32 8.5 °F 2.1 °F 1019.9 in North 11.3 mph 16.1 mph 64 % 0.0 in
14:37 8.4 °F 2.2 °F 1019.9 in North 12.9 mph 16.1 mph 65 % 0.0 in
14:42 8.5 °F 2.5 °F 1019.9 in WNW 3.2 mph 17.7 mph 66 % 0.0 in
14:47 8.6 °F 2.6 °F 1019.9 in North 6.4 mph 17.7 mph 66 % 0.0 in
14:52 8.7 °F 2.7 °F 1019.9 in NNW 9.7 mph 17.7 mph 66 % 0.0 in
14:57 8.6 °F 2.4 °F 1019.9 in NW 3.2 mph 12.9 mph 65 % 0.0 in
15:02 8.7 °F 2.5 °F 1019.9 in NE 8.0 mph 12.9 mph 65 % 0.0 in
15:07 8.6 °F 2.4 °F 1019.9 in NW 3.2 mph 12.9 mph 65 % 0.0 in
15:12 8.6 °F 2.6 °F 1019.9 in North 3.2 mph 14.5 mph 66 % 0.0 in
15:17 8.8 °F 2.6 °F 1019.9 in Calm   14.5 mph 65 % 0.0 in
15:22 8.8 °F 2.4 °F 1019.9 in NW 4.8 mph 8.0 mph 64 % 0.0 in
15:27 8.5 °F 2.3 °F 1019.9 in NNW 6.4 mph 8.0 mph 65 % 0.0 in
15:32 8.4 °F 2.2 °F 1019.9 in NNW 3.2 mph 11.3 mph 65 % 0.0 in
15:37 8.4 °F 2.6 °F 1019.9 in NW 4.8 mph 11.3 mph 67 % 0.0 in
15:42 8.4 °F 2.4 °F 1019.9 in Calm   11.3 mph 66 % 0.0 in
15:47 8.4 °F 2.4 °F 1019.9 in NNW 3.2 mph 8.0 mph 66 % 0.0 in
15:52 8.4 °F 2.4 °F 1019.9 in NNE 4.8 mph 8.0 mph 66 % 0.0 in
15:57 8.4 °F 2.4 °F 1019.9 in NNW 3.2 mph 8.0 mph 66 % 0.0 in
16:02 8.5 °F 2.5 °F 1019.9 in NNE 6.4 mph 8.0 mph 66 % 0.0 in
16:07 8.6 °F 2.6 °F 1019.9 in NE 1.6 mph 8.0 mph 66 % 0.0 in
16:12 8.7 °F 2.7 °F 1019.9 in North 4.8 mph 8.0 mph 66 % 0.0 in
16:22 8.4 °F 2.0 °F 1019.9 in NNE 4.8 mph 11.3 mph 64 % 0.0 in
16:27 8.3 °F 2.1 °F 1019.9 in NNW 1.6 mph 11.3 mph 65 % 0.0 in
16:32 8.2 °F 2.2 °F 1019.9 in Calm   11.3 mph 66 % 0.0 in
16:42 8.3 °F 2.1 °F 1019.9 in Calm   3.2 mph 65 % 0.0 in
16:52 7.9 °F 2.2 °F 1019.9 in Calm   4.8 mph 67 % 0.0 in
16:57 7.9 °F 2.2 °F 1019.9 in WNW 1.6 mph 3.2 mph 67 % 0.0 in
17:02 7.7 °F 2.0 °F 1019.9 in Calm   3.2 mph 67 % 0.0 in
17:07 7.3 °F 2.0 °F 1019.9 in WNW 1.6 mph 3.2 mph 69 % 0.0 in
17:12 7.0 °F 1.9 °F 1019.9 in Calm   3.2 mph 70 % 0.0 in
17:17 6.8 °F 1.7 °F 1019.9 in Calm   3.2 mph 70 % 0.0 in
17:22 6.6 °F 1.7 °F 1019.9 in Calm   3.2 mph 71 % 0.0 in
17:27 6.3 °F 1.6 °F 1019.9 in Calm   1.6 mph 72 % 0.0 in
17:32 6.0 °F 1.5 °F 1019.9 in Calm   1.6 mph 73 % 0.0 in
17:37 5.8 °F 1.5 °F 1019.9 in Calm   1.6 mph 74 % 0.0 in
17:42 5.8 °F 1.5 °F 1019.5 in Calm     74 % 0.0 in
17:47 5.4 °F 1.3 °F 1019.9 in Calm     75 % 0.0 in
17:52 5.1 °F 1.2 °F 1019.9 in Calm     76 % 0.0 in
17:57 4.9 °F 1.2 °F 1019.5 in Calm     77 % 0.0 in
18:02 4.7 °F 1.0 °F 1019.5 in Calm     77 % 0.0 in
18:07 4.7 °F 1.2 °F 1019.9 in Calm     78 % 0.0 in
18:12 4.6 °F 1.3 °F 1019.9 in WNW 3.2 mph   79 % 0.0 in
18:27 3.8 °F 1.0 °F 1019.5 in Calm   3.2 mph 82 % 0.0 in
18:32 3.8 °F 1.0 °F 1019.9 in Calm   1.6 mph 82 % 0.0 in
18:42 4.0 °F 1.0 °F 1019.5 in Calm   1.6 mph 81 % 0.0 in
18:52 3.6 °F 0.8 °F 1019.9 in NW 1.6 mph 3.2 mph 82 % 0.0 in
18:57 3.3 °F 0.9 °F 1019.9 in WNW 1.6 mph 3.2 mph 84 % 0.0 in
19:02 3.3 °F 1.0 °F 1019.9 in WNW 1.6 mph 3.2 mph 85 % 0.0 in
19:12 2.9 °F 0.6 °F 1019.9 in WNW 1.6 mph 3.2 mph 85 % 0.0 in
19:17 2.6 °F 0.5 °F 1019.9 in WNW 1.6 mph 3.2 mph 86 % 0.0 in
19:22 2.4 °F 0.3 °F 1019.5 in WNW 1.6 mph 3.2 mph 86 % 0.0 in
19:27 2.3 °F 0.5 °F 1019.5 in WNW 1.6 mph 3.2 mph 88 % 0.0 in
19:37 2.5 °F 0.6 °F 1019.5 in WNW 1.6 mph 3.2 mph 87 % 0.0 in
19:42 2.4 °F 0.5 °F 1019.5 in WNW 1.6 mph 1.6 mph 87 % 0.0 in
19:47 2.2 °F 0.3 °F 1019.5 in WNW 1.6 mph 3.2 mph 87 % 0.0 in
19:52 2.1 °F 0.3 °F 1019.5 in Calm   3.2 mph 88 % 0.0 in
19:57 2.1 °F 0.3 °F 1019.5 in Calm   3.2 mph 88 % 0.0 in
20:02 2.2 °F 0.4 °F 1019.5 in Calm   1.6 mph 88 % 0.0 in
20:07 2.1 °F 0.3 °F 1019.5 in Calm   1.6 mph 88 % 0.0 in
20:12 1.8 °F 0.0 °F 1019.5 in Calm   1.6 mph 88 % 0.0 in
20:17 1.6 °F -0.2 °F 1019.5 in Calm   1.6 mph 88 % 0.0 in
20:22 1.3 °F -0.3 °F 1019.5 in Calm     89 % 0.0 in
20:27 1.2 °F -0.4 °F 1019.5 in Calm     89 % 0.0 in
20:32 1.2 °F -0.3 °F 1019.2 in Calm     90 % 0.0 in
20:37 1.1 °F -0.4 °F 1019.2 in Calm     90 % 0.0 in
20:42 1.0 °F -0.5 °F 1019.2 in Calm     90 % 0.0 in
20:52 0.8 °F -0.7 °F 1019.2 in West 1.6 mph 1.6 mph 90 % 0.0 in
20:57 0.7 °F -0.6 °F 1019.2 in WNW 1.6 mph 1.6 mph 91 % 0.0 in
21:02 0.7 °F -0.6 °F 1019.2 in Calm   3.2 mph 91 % 0.0 in
21:07 0.7 °F -0.6 °F 1019.2 in WNW 1.6 mph 3.2 mph 91 % 0.0 in
21:12 0.6 °F -0.7 °F 1019.2 in Calm   3.2 mph 91 % 0.0 in
21:17 0.5 °F -0.8 °F 1019.2 in Calm   1.6 mph 91 % 0.0 in
21:22 0.6 °F -0.5 °F 1019.2 in Calm   1.6 mph 92 % 0.0 in
21:32 0.8 °F -0.2 °F 1019.5 in West 1.6 mph   93 % 0.0 in
21:37 1.0 °F -0.2 °F 1019.5 in West 1.6 mph 4.8 mph 92 % 0.0 in
21:42 1.0 °F -0.3 °F 1019.5 in Calm   4.8 mph 91 % 0.0 in
21:47 0.9 °F -0.4 °F 1019.2 in Calm   4.8 mph 91 % 0.0 in
21:52 0.9 °F -0.4 °F 1019.2 in Calm   3.2 mph 91 % 0.0 in
21:57 0.9 °F -0.4 °F 1019.2 in Calm   1.6 mph 91 % 0.0 in
22:02 0.9 °F -0.6 °F 1019.2 in Calm   1.6 mph 90 % 0.0 in
22:07 0.7 °F -0.8 °F 1019.2 in WNW 1.6 mph 1.6 mph 90 % 0.0 in
22:12 0.6 °F -0.7 °F 1019.2 in Calm   3.2 mph 91 % 0.0 in
22:22 0.6 °F -0.5 °F 1019.2 in Calm   3.2 mph 92 % 0.0 in
22:27 0.7 °F -0.5 °F 1019.2 in North 3.2 mph 3.2 mph 92 % 0.0 in
22:32 0.6 °F -0.7 °F 1019.2 in NNE 1.6 mph 3.2 mph 91 % 0.0 in
22:37 0.4 °F -0.7 °F 1019.2 in Calm   3.2 mph 92 % 0.0 in
22:47 0.2 °F -0.9 °F 1019.2 in Calm   3.2 mph 92 % 0.0 in
22:52 0.2 °F -0.9 °F 1019.2 in Calm   1.6 mph 92 % 0.0 in
22:57 0.1 °F -1.0 °F 1018.8 in Calm   1.6 mph 92 % 0.0 in
23:02 0.0 °F -1.1 °F 1018.8 in Calm     92 % 0.0 in
23:07 0.1 °F -0.9 °F 1018.8 in Calm     93 % 0.0 in
23:12 0.3 °F -0.7 °F 1018.8 in Calm   1.6 mph 93 % 0.0 in
23:17 0.2 °F -0.8 °F 1018.8 in Calm   1.6 mph 93 % 0.0 in
23:22 0.2 °F -0.9 °F 1018.8 in Calm   1.6 mph 92 % 0.0 in
23:27 0.2 °F -0.8 °F 1018.8 in Calm   1.6 mph 93 % 0.0 in
23:32 0.2 °F -0.8 °F 1018.8 in Calm   1.6 mph 93 % 0.0 in
23:37 0.2 °F -0.8 °F 1018.8 in North 1.6 mph 1.6 mph 93 % 0.0 in
23:42 0.1 °F -1.0 °F 1018.8 in Calm   1.6 mph 92 % 0.0 in
23:47 -0.1 °F -1.2 °F 1018.8 in Calm   1.6 mph 92 % 0.0 in
23:52 -0.2 °F -1.2 °F 1018.8 in Calm   1.6 mph 93 % 0.0 in
23:57 -0.4 °F -1.5 °F 1018.8 in Calm     92 % 0.0 in
Meteo18
Compliments of Weather Underground - 4 mb

Script developed by  Jim McMurry - jmcmurry@mwt.net Adapted for the template by  Wim van der Kuil - Leuven-Template.eu

You find our weather info also at:

European Weather Network

Weather Underground

Equipment we use:

Weather-station
Davis Vue

Weather-program
Meteobridge

Weather-server
Raspberry PI 2 B+

Provider
1 and 1

Davis Vue

Meteobridge

Raspberry PI 2 B+

1 and 1